createdAt,value
2019-01-23T04:16:08.636Z,79.03
2019-01-23T04:18:38.123Z,79.97
2019-01-23T04:21:07.307Z,74.47
2019-01-23T04:23:36.313Z,81.77
2019-01-23T04:26:05.453Z,99.37
2019-01-23T04:28:34.449Z,92.97
2019-01-23T04:31:03.548Z,83.00
2019-01-23T04:33:32.530Z,79.43
2019-01-23T04:36:01.599Z,85.13
2019-01-23T04:38:30.725Z,77.13
2019-01-23T04:40:59.724Z,82.50
2019-01-23T04:43:28.911Z,79.37
2019-01-23T04:45:58.030Z,76.53
2019-01-23T04:48:26.963Z,91.83
2019-01-23T04:51:13.697Z,88.87
2019-01-23T04:53:44.857Z,83.80
2019-01-23T04:56:13.956Z,84.77
2019-01-23T04:58:43.027Z,87.03
2019-01-23T05:01:12.352Z,87.27
2019-01-23T05:03:41.384Z,76.80
2019-01-23T05:06:10.461Z,99.60
2019-01-23T05:08:39.536Z,95.20
2019-01-23T05:11:08.652Z,84.37
2019-01-23T05:13:37.753Z,80.63
2019-01-23T05:16:06.924Z,96.87
2019-01-23T05:18:35.955Z,117.27
2019-01-23T05:21:05.445Z,118.70
2019-01-23T05:23:34.623Z,107.37
2019-01-23T05:26:03.721Z,121.00
2019-01-23T05:28:32.843Z,133.07
2019-01-23T05:31:01.936Z,119.47
2019-01-23T05:33:31.077Z,130.53
2019-01-23T05:36:00.251Z,103.67
2019-01-23T05:38:29.335Z,105.03
2019-01-23T05:40:58.360Z,111.77
2019-01-23T05:43:27.406Z,127.03
2019-01-23T05:45:58.254Z,107.47
2019-01-23T05:48:27.287Z,121.13
2019-01-23T05:50:56.305Z,134.00
2019-01-23T05:53:25.386Z,135.80
2019-01-23T05:55:54.518Z,129.23
2019-01-23T05:58:23.611Z,133.97
2019-01-23T06:00:52.665Z,126.10
2019-01-23T06:03:21.855Z,116.17
2019-01-23T06:05:50.983Z,128.93
2019-01-23T06:08:19.978Z,131.33
2019-01-23T06:10:48.999Z,125.97
2019-01-23T06:13:17.998Z,117.80
2019-01-23T06:15:47.011Z,116.67
2019-01-23T06:18:16.139Z,117.90
2019-01-23T06:20:45.331Z,110.87
2019-01-23T06:23:14.269Z,117.93
2019-01-23T06:25:43.399Z,92.93
2019-01-23T06:28:12.427Z,121.53
2019-01-23T06:30:41.524Z,97.33
2019-01-23T06:33:10.810Z,121.60
2019-01-23T06:35:39.874Z,107.90
2019-01-23T06:38:08.950Z,119.63
2019-01-23T06:40:38.395Z,116.07
2019-01-23T06:43:07.551Z,115.97
2019-01-23T06:45:36.495Z,116.30
2019-01-23T06:48:06.004Z,142.50
2019-01-23T06:50:34.996Z,114.43
2019-01-23T06:53:04.163Z,111.63
2019-01-23T06:55:33.371Z,142.23
2019-01-23T06:58:02.483Z,97.33
2019-01-23T07:00:31.600Z,105.43
2019-01-23T07:03:00.673Z,122.27
2019-01-23T07:05:29.663Z,107.33
2019-01-23T07:07:58.654Z,114.90
2019-01-23T07:10:27.799Z,118.00
2019-01-23T07:12:56.779Z,118.57
2019-01-23T07:15:25.779Z,125.93
2019-01-23T07:17:54.966Z,117.13
2019-01-23T07:20:27.955Z,122.63
2019-01-23T07:22:57.053Z,123.63
2019-01-23T07:25:27.165Z,157.10
2019-01-23T07:27:56.155Z,124.13
2019-01-23T07:30:27.663Z,104.10
2019-01-23T07:32:56.766Z,121.43
2019-01-23T07:35:25.907Z,137.27
2019-01-23T07:37:55.070Z,145.47
2019-01-23T07:40:24.239Z,118.97
2019-01-23T07:42:53.691Z,142.60
2019-01-23T07:45:23.165Z,132.50
2019-01-23T07:47:52.203Z,118.83
2019-01-23T07:50:21.259Z,124.90
2019-01-23T07:52:50.332Z,123.90
2019-01-23T07:55:20.578Z,122.23
2019-01-23T07:57:49.763Z,116.57
2019-01-23T08:00:20.162Z,114.10
2019-01-23T08:02:49.498Z,151.73
2019-01-23T08:05:20.793Z,127.10
2019-01-23T08:07:50.051Z,143.07
2019-01-23T08:10:19.634Z,123.87
2019-01-23T08:12:48.753Z,137.43
2019-01-23T08:15:23.229Z,163.77
2019-01-23T08:17:52.209Z,112.47
2019-01-23T08:20:21.913Z,124.03
2019-01-23T08:22:50.980Z,119.40
2019-01-23T08:25:20.095Z,122.13
2019-01-23T08:27:49.137Z,129.43
2019-01-23T08:30:19.858Z,119.10
2019-01-23T08:32:49.070Z,134.20
2019-01-23T08:35:18.342Z,126.17
2019-01-23T08:37:47.591Z,108.53
2019-01-23T08:40:16.724Z,124.90
2019-01-23T08:42:46.049Z,99.33
2019-01-23T08:45:15.146Z,121.57
2019-01-23T08:47:44.298Z,109.83
2019-01-23T08:50:19.654Z,118.53
2019-01-23T08:52:48.765Z,105.87
2019-01-23T08:55:18.059Z,113.43
2019-01-23T08:57:47.215Z,108.50
2019-01-23T09:00:16.349Z,126.47
2019-01-23T09:02:45.580Z,118.53
2019-01-23T09:05:14.781Z,97.63
2019-01-23T09:07:43.919Z,116.83
2019-01-23T09:10:16.041Z,100.23
2019-01-23T09:12:45.134Z,104.37
2019-01-23T09:15:15.117Z,92.53
2019-01-23T09:17:44.248Z,96.30
2019-01-23T09:20:14.091Z,95.07
2019-01-23T09:22:43.102Z,97.93
2019-01-23T09:25:14.240Z,119.30
2019-01-23T09:27:43.406Z,122.93
2019-01-23T09:30:18.934Z,87.47
2019-01-23T09:33:36.531Z,98.73
2019-01-23T09:36:47.941Z,96.93
2019-01-23T09:39:58.214Z,82.50
2019-01-23T09:43:16.078Z,93.70
2019-01-23T09:46:28.914Z,88.37
2019-01-23T09:49:47.078Z,98.57
2019-01-23T09:52:50.999Z,98.67
2019-01-23T09:55:20.194Z,89.37
2019-01-23T09:57:52.931Z,90.77
2019-01-23T10:00:25.005Z,87.73
2019-01-23T10:02:54.138Z,88.07
2019-01-23T10:05:23.151Z,99.73
2019-01-23T10:07:52.235Z,74.00
2019-01-23T10:10:21.339Z,80.03
2019-01-23T10:12:50.418Z,81.30
2019-01-23T10:15:23.478Z,77.13
2019-01-23T10:17:52.479Z,89.37
2019-01-23T10:20:21.728Z,74.43
2019-01-23T10:22:50.851Z,87.40
2019-01-23T10:25:20.018Z,84.47
2019-01-23T10:27:49.168Z,88.63
2019-01-23T10:30:18.314Z,75.43
2019-01-23T10:32:47.472Z,81.70
2019-01-23T10:35:16.584Z,74.97
2019-01-23T10:37:45.710Z,77.50
2019-01-23T10:40:15.732Z,77.53
2019-01-23T10:42:44.899Z,77.50
2019-01-23T10:45:14.274Z,71.90
2019-01-23T10:47:43.755Z,87.43
2019-01-23T10:50:13.346Z,77.77
2019-01-23T10:52:42.450Z,87.87
2019-01-23T10:55:12.219Z,72.70
2019-01-23T10:57:41.692Z,79.77
2019-01-23T11:00:13.854Z,72.00
2019-01-23T11:02:42.955Z,73.20
2019-01-23T11:05:14.969Z,70.77
2019-01-23T11:07:44.069Z,94.20
2019-01-23T11:10:15.467Z,68.97
2019-01-23T11:12:44.546Z,75.23
2019-01-23T11:15:14.159Z,70.17
2019-01-23T11:17:43.310Z,80.27
2019-01-23T11:20:14.358Z,75.40
2019-01-23T11:22:43.423Z,87.73
2019-01-23T11:25:12.925Z,74.37
2019-01-23T11:27:42.487Z,72.20
2019-01-23T11:30:20.861Z,71.60
2019-01-23T11:32:49.950Z,65.57
2019-01-23T11:35:19.022Z,78.80
2019-01-23T11:37:48.233Z,89.90
2019-01-23T11:40:20.330Z,66.37
2019-01-23T11:42:49.334Z,64.87
2019-01-23T11:45:18.392Z,77.87
2019-01-23T11:47:47.470Z,64.27
2019-01-23T11:50:21.883Z,65.43
2019-01-23T11:52:48.727Z,67.03
2019-01-23T11:55:17.989Z,72.13
2019-01-23T11:57:47.153Z,72.07
2019-01-23T12:00:18.291Z,63.83
2019-01-23T12:02:47.363Z,62.97
2019-01-23T12:05:18.152Z,56.40
2019-01-23T12:07:47.934Z,68.20
2019-01-23T12:10:19.086Z,63.50
2019-01-23T12:12:48.267Z,67.23
2019-01-23T12:15:19.266Z,65.83
2019-01-23T12:17:48.499Z,63.27
2019-01-23T12:20:17.673Z,69.63
2019-01-23T12:22:46.775Z,74.40
2019-01-23T12:25:16.009Z,63.03
2019-01-23T12:27:45.105Z,61.83
2019-01-23T12:30:19.831Z,55.47
2019-01-23T12:32:48.861Z,55.57
2019-01-23T12:35:18.088Z,59.17
2019-01-23T12:37:47.254Z,61.60
2019-01-23T12:40:16.575Z,74.37
2019-01-23T12:42:45.631Z,60.87
2019-01-23T12:45:17.663Z,55.80
2019-01-23T12:47:46.800Z,61.63
2019-01-23T12:50:17.601Z,66.87
2019-01-23T12:52:46.704Z,50.30
2019-01-23T12:55:15.714Z,50.10
2019-01-23T12:57:44.781Z,51.87
2019-01-23T13:00:17.991Z,57.67
2019-01-23T13:02:47.139Z,53.83
2019-01-23T13:05:18.540Z,65.77
2019-01-23T13:07:47.936Z,53.03
2019-01-23T13:10:18.431Z,51.87
2019-01-23T13:12:47.527Z,58.93
2019-01-23T13:15:18.961Z,43.80
2019-01-23T13:17:48.033Z,49.77
2019-01-23T13:20:17.865Z,54.93
2019-01-23T13:22:47.075Z,49.43
2019-01-23T13:25:18.092Z,51.10
2019-01-23T13:27:47.698Z,57.73
2019-01-23T13:30:18.695Z,63.60
2019-01-23T13:32:48.063Z,49.57
2019-01-23T13:35:19.427Z,53.03
2019-01-23T13:37:48.756Z,48.43
2019-01-23T13:40:23.139Z,51.53
2019-01-23T13:42:52.143Z,51.97
2019-01-23T13:45:21.338Z,65.67
2019-01-23T13:47:50.406Z,52.50
2019-01-23T13:50:19.564Z,58.30
2019-01-23T13:52:48.733Z,52.53
2019-01-23T13:55:19.791Z,52.87
2019-01-23T13:57:48.945Z,54.87
2019-01-23T14:00:23.293Z,59.40
2019-01-23T14:02:52.463Z,56.67
2019-01-23T14:05:21.530Z,47.90
2019-01-23T14:07:50.714Z,44.90
2019-01-23T14:10:19.807Z,42.77
2019-01-23T14:12:48.794Z,44.73
2019-01-23T14:15:21.485Z,46.03
2019-01-23T14:17:50.506Z,43.93
2019-01-23T14:20:19.599Z,52.87
2019-01-23T14:22:48.770Z,43.70
2019-01-23T14:25:17.903Z,54.17
2019-01-23T14:27:46.992Z,54.40
2019-01-23T14:30:37.276Z,46.47
2019-01-23T14:33:06.374Z,53.67
2019-01-23T14:35:36.827Z,49.43
2019-01-23T14:38:06.131Z,41.07
2019-01-23T14:40:35.447Z,58.17
2019-01-23T14:43:05.424Z,49.60
2019-01-23T14:45:34.482Z,44.23
2019-01-23T14:48:03.646Z,48.20
2019-01-23T14:50:32.655Z,41.80
2019-01-23T14:53:01.754Z,44.73
2019-01-23T14:55:30.769Z,39.47
2019-01-23T14:57:59.846Z,52.83
2019-01-23T15:00:29.164Z,43.57
2019-01-23T15:02:58.255Z,54.30
2019-01-23T15:05:27.487Z,43.40
2019-01-23T15:07:56.457Z,56.20
2019-01-23T15:10:27.181Z,58.53
2019-01-23T15:12:56.273Z,46.87
2019-01-23T15:15:25.678Z,50.33
2019-01-23T15:17:55.098Z,47.13
2019-01-23T15:20:30.321Z,47.00
2019-01-23T15:22:59.479Z,59.50
2019-01-23T15:25:28.782Z,57.10
2019-01-23T15:27:57.841Z,64.93
2019-01-23T15:30:27.116Z,54.83
2019-01-23T15:32:56.129Z,59.47
2019-01-23T15:35:25.211Z,48.27
2019-01-23T15:37:54.223Z,50.57
2019-01-23T15:40:25.665Z,51.20
2019-01-23T15:42:54.736Z,57.73
2019-01-23T15:45:23.985Z,40.70
2019-01-23T15:47:52.973Z,57.77
2019-01-23T15:50:23.492Z,48.07
2019-01-23T15:52:52.685Z,55.63
2019-01-23T15:55:23.355Z,65.37
2019-01-23T15:57:52.445Z,41.07
2019-01-23T16:00:23.707Z,43.93
2019-01-23T16:02:52.890Z,51.17
2019-01-23T16:05:21.950Z,48.50
2019-01-23T16:07:51.087Z,51.87
2019-01-23T16:10:22.247Z,71.47
2019-01-23T16:12:51.319Z,61.10
2019-01-23T16:15:22.526Z,65.90
2019-01-23T16:17:51.483Z,59.57
2019-01-23T16:20:20.557Z,64.00
2019-01-23T16:22:49.675Z,54.10
2019-01-23T16:25:18.981Z,58.27
2019-01-23T16:27:48.260Z,69.17
2019-01-23T16:30:25.847Z,58.53
2019-01-23T16:32:54.854Z,65.10
2019-01-23T16:35:23.923Z,79.07
2019-01-23T16:37:53.134Z,84.27
2019-01-23T16:40:22.203Z,80.07
2019-01-23T16:42:51.288Z,71.27
2019-01-23T16:45:20.766Z,66.83
2019-01-23T16:47:49.848Z,76.40
2019-01-23T16:50:21.779Z,61.93
2019-01-23T16:52:50.899Z,77.00
2019-01-23T16:55:20.289Z,79.37
2019-01-23T16:57:49.668Z,63.13
2019-01-23T17:00:21.539Z,74.30
2019-01-23T17:02:50.647Z,57.93
2019-01-23T17:05:25.586Z,64.00
2019-01-23T17:07:55.539Z,69.60
2019-01-23T17:10:25.231Z,69.90
2019-01-23T17:12:54.415Z,60.17
2019-01-23T17:15:23.527Z,75.67
2019-01-23T17:17:54.492Z,80.93
2019-01-23T17:20:30.150Z,64.33
2019-01-23T17:22:59.245Z,72.13
2019-01-23T17:25:28.339Z,66.53
2019-01-23T17:27:57.546Z,77.07
2019-01-23T17:30:26.885Z,70.97
2019-01-23T17:32:55.881Z,76.77
2019-01-23T17:35:24.994Z,73.83
2019-01-23T17:37:54.058Z,74.47
2019-01-23T17:40:23.101Z,78.77
2019-01-23T17:42:52.329Z,71.33
2019-01-23T17:45:23.916Z,73.57
2019-01-23T17:47:53.087Z,80.17
2019-01-23T17:50:22.510Z,88.87
2019-01-23T17:52:51.915Z,81.90
2019-01-23T17:55:26.583Z,78.40
2019-01-23T17:57:55.623Z,86.90
2019-01-23T18:00:27.083Z,83.23
2019-01-23T18:02:56.386Z,83.53
2019-01-23T18:05:25.786Z,77.37
2019-01-23T18:07:55.524Z,78.80
2019-01-23T18:10:24.690Z,89.60
2019-01-23T18:12:53.727Z,75.70
2019-01-23T18:15:24.223Z,73.03
2019-01-23T18:17:53.338Z,70.07
2019-01-23T18:20:27.376Z,65.33
2019-01-23T18:22:56.516Z,91.93
2019-01-23T18:25:25.778Z,86.47
2019-01-23T18:27:54.927Z,78.47
2019-01-23T18:30:27.292Z,81.33
2019-01-23T18:33:00.274Z,83.23
2019-01-23T18:35:58.883Z,75.53
2019-01-23T18:39:10.250Z,85.80
2019-01-23T18:42:05.775Z,85.27
2019-01-23T18:45:06.603Z,82.47
2019-01-23T18:48:05.306Z,79.97
2019-01-23T18:51:16.281Z,78.17
2019-01-23T18:53:45.336Z,72.50
2019-01-23T18:56:14.433Z,66.13
2019-01-23T18:58:43.539Z,73.63
2019-01-23T19:01:12.574Z,91.83
2019-01-23T19:03:41.666Z,68.93
2019-01-23T19:06:10.829Z,74.73
2019-01-23T19:08:40.069Z,64.60
2019-01-23T19:11:09.147Z,82.37
2019-01-23T19:13:38.290Z,70.83
2019-01-23T19:16:07.954Z,86.23
2019-01-23T19:18:37.091Z,79.30
2019-01-23T19:21:06.819Z,86.27
2019-01-23T19:23:35.918Z,73.23
2019-01-23T19:26:05.723Z,72.93
2019-01-23T19:28:34.858Z,71.67
2019-01-23T19:31:04.111Z,79.53
2019-01-23T19:33:33.111Z,90.33
2019-01-23T19:36:02.264Z,81.43
2019-01-23T19:38:32.537Z,81.03
2019-01-23T19:41:01.650Z,69.17
2019-01-23T19:43:30.786Z,80.13
2019-01-23T19:46:00.051Z,76.63
2019-01-23T19:48:29.179Z,83.07
2019-01-23T19:50:58.246Z,59.17
2019-01-23T19:53:27.441Z,72.27
2019-01-23T19:55:56.509Z,93.53
2019-01-23T19:58:25.577Z,87.87
2019-01-23T20:00:54.586Z,87.80
2019-01-23T20:03:23.686Z,68.80
2019-01-23T20:05:52.836Z,76.80
2019-01-23T20:08:21.868Z,63.80
2019-01-23T20:10:51.031Z,78.93
2019-01-23T20:13:20.135Z,73.13
2019-01-23T20:15:49.677Z,73.63
2019-01-23T20:18:18.676Z,71.10
2019-01-23T20:20:47.746Z,74.27
2019-01-23T20:23:16.791Z,58.93
2019-01-23T20:25:45.779Z,77.23
2019-01-23T20:28:15.063Z,71.30
2019-01-23T20:30:45.404Z,81.43
2019-01-23T20:33:14.469Z,76.70
2019-01-23T20:35:43.583Z,76.70
2019-01-23T20:38:12.709Z,63.90
2019-01-23T20:40:41.873Z,70.03
2019-01-23T20:43:10.946Z,75.40
2019-01-23T20:45:40.206Z,76.37
2019-01-23T20:48:10.683Z,81.63
2019-01-23T20:50:39.694Z,74.40
2019-01-23T20:53:08.825Z,53.10
2019-01-23T20:55:37.862Z,61.47
2019-01-23T20:58:06.947Z,74.20
2019-01-23T21:00:36.379Z,68.30
2019-01-23T21:03:05.855Z,65.27
2019-01-23T21:05:35.068Z,76.20
2019-01-23T21:08:04.278Z,66.17
2019-01-23T21:10:33.485Z,75.03
2019-01-23T21:13:02.645Z,78.70
2019-01-23T21:15:32.917Z,72.00
2019-01-23T21:18:02.991Z,67.47
2019-01-23T21:20:34.734Z,78.27
2019-01-23T21:23:03.946Z,69.50
2019-01-23T21:25:33.017Z,72.53
2019-01-23T21:28:01.965Z,67.20
2019-01-23T21:30:31.114Z,75.03
2019-01-23T21:33:00.295Z,62.43
2019-01-23T21:35:29.297Z,62.57
2019-01-23T21:37:58.410Z,73.97
2019-01-23T21:40:29.945Z,70.23
2019-01-23T21:42:58.966Z,65.17
2019-01-23T21:45:28.727Z,78.23
2019-01-23T21:47:57.758Z,70.70
2019-01-23T21:50:27.227Z,78.47
2019-01-23T21:52:56.381Z,71.20
2019-01-23T21:55:25.792Z,71.00
2019-01-23T21:57:54.891Z,78.80
2019-01-23T22:00:32.345Z,66.33
2019-01-23T22:03:01.945Z,67.13
2019-01-23T22:05:31.019Z,64.10
2019-01-23T22:08:00.124Z,73.97
2019-01-23T22:10:29.243Z,69.40
2019-01-23T22:12:58.245Z,72.37
2019-01-23T22:15:27.670Z,75.27
2019-01-23T22:17:56.764Z,72.40
2019-01-23T22:20:27.221Z,79.37
2019-01-23T22:22:56.242Z,83.73
2019-01-23T22:25:25.551Z,79.17
2019-01-23T22:27:54.809Z,89.83
2019-01-23T22:30:26.104Z,80.43
2019-01-23T22:32:55.195Z,75.20
2019-01-23T22:35:24.380Z,91.90
2019-01-23T22:37:53.476Z,77.20
2019-01-23T22:40:22.549Z,75.13
2019-01-23T22:42:51.677Z,68.50
2019-01-23T22:45:20.979Z,70.03
2019-01-23T22:47:50.070Z,73.57
2019-01-23T22:50:21.278Z,72.17
2019-01-23T22:52:50.794Z,73.87
2019-01-23T22:55:19.919Z,80.17
2019-01-23T22:57:49.023Z,81.53
2019-01-23T23:00:42.347Z,75.50
2019-01-23T23:03:13.804Z,78.03
2019-01-23T23:05:42.965Z,77.60
2019-01-23T23:08:12.154Z,73.03
2019-01-23T23:10:41.239Z,77.13
2019-01-23T23:13:10.433Z,70.63
2019-01-23T23:15:39.752Z,67.57
2019-01-23T23:18:08.939Z,66.00
2019-01-23T23:20:37.931Z,65.60
2019-01-23T23:23:07.059Z,71.57
2019-01-23T23:25:36.141Z,83.97
2019-01-23T23:28:05.742Z,65.60
